sensor_id;sensor_type;location;lat;lon;timestamp;temperature;humidity
74155;DHT22;62509;46.248;6.018;2024-01-15T00:03:15;4.50;99.90
74155;DHT22;62509;46.248;6.018;2024-01-15T00:08:19;4.60;99.90
74155;DHT22;62509;46.248;6.018;2024-01-15T00:13:22;4.60;99.90
74155;DHT22;62509;46.248;6.018;2024-01-15T00:18:27;4.70;99.90
74155;DHT22;62509;46.248;6.018;2024-01-15T00:23:31;4.80;99.90
74155;DHT22;62509;46.248;6.018;2024-01-15T00:28:34;4.80;99.70
74155;DHT22;62509;46.248;6.018;2024-01-15T00:33:40;5.00;99.20
74155;DHT22;62509;46.248;6.018;2024-01-15T00:38:44;5.10;98.80
74155;DHT22;62509;46.248;6.018;2024-01-15T00:43:49;5.20;98.60
74155;DHT22;62509;46.248;6.018;2024-01-15T00:48:54;5.30;98.50
74155;DHT22;62509;46.248;6.018;2024-01-15T00:53:57;5.30;98.40
74155;DHT22;62509;46.248;6.018;2024-01-15T00:59:01;5.30;98.50
74155;DHT22;62509;46.248;6.018;2024-01-15T01:04:06;5.30;98.70
74155;DHT22;62509;46.248;6.018;2024-01-15T01:09:09;5.30;98.90
74155;DHT22;62509;46.248;6.018;2024-01-15T01:14:13;5.20;99.00
74155;DHT22;62509;46.248;6.018;2024-01-15T01:19:18;5.20;99.00
74155;DHT22;62509;46.248;6.018;2024-01-15T01:24:21;5.20;98.80
74155;DHT22;62509;46.248;6.018;2024-01-15T01:29:25;5.30;98.60
74155;DHT22;62509;46.248;6.018;2024-01-15T01:34:32;5.30;98.40
74155;DHT22;62509;46.248;6.018;2024-01-15T01:39:36;5.40;98.30
74155;DHT22;62509;46.248;6.018;2024-01-15T01:44:39;5.40;98.10
74155;DHT22;62509;46.248;6.018;2024-01-15T01:49:44;5.30;98.20
74155;DHT22;62509;46.248;6.018;2024-01-15T01:54:49;5.20;98.10
74155;DHT22;62509;46.248;6.018;2024-01-15T01:59:53;5.20;97.80
74155;DHT22;62509;46.248;6.018;2024-01-15T02:04:58;5.30;97.70
74155;DHT22;62509;46.248;6.018;2024-01-15T02:10:01;5.30;97.30
74155;DHT22;62509;46.248;6.018;2024-01-15T02:15:05;5.30;97.10
74155;DHT22;62509;46.248;6.018;2024-01-15T02:20:11;5.30;97.10
74155;DHT22;62509;46.248;6.018;2024-01-15T02:25:15;5.30;97.00
74155;DHT22;62509;46.248;6.018;2024-01-15T02:30:19;5.30;97.00
74155;DHT22;62509;46.248;6.018;2024-01-15T02:35:22;5.30;97.10
74155;DHT22;62509;46.248;6.018;2024-01-15T02:40:27;5.20;97.30
74155;DHT22;62509;46.248;6.018;2024-01-15T02:45:31;5.20;97.50
74155;DHT22;62509;46.248;6.018;2024-01-15T02:50:34;5.20;97.80
74155;DHT22;62509;46.248;6.018;2024-01-15T02:55:39;5.10;98.10
74155;DHT22;62509;46.248;6.018;2024-01-15T03:00:42;5.10;98.30
74155;DHT22;62509;46.248;6.018;2024-01-15T03:05:46;5.10;98.30
74155;DHT22;62509;46.248;6.018;2024-01-15T03:10:51;5.00;98.40
74155;DHT22;62509;46.248;6.018;2024-01-15T03:15:55;5.00;98.70
74155;DHT22;62509;46.248;6.018;2024-01-15T03:20:59;4.90;98.90
74155;DHT22;62509;46.248;6.018;2024-01-15T03:26:05;4.90;99.30
74155;DHT22;62509;46.248;6.018;2024-01-15T03:31:08;4.80;99.60
74155;DHT22;62509;46.248;6.018;2024-01-15T03:36:12;4.80;99.80
74155;DHT22;62509;46.248;6.018;2024-01-15T03:41:17;4.80;99.90
74155;DHT22;62509;46.248;6.018;2024-01-15T03:46:21;4.70;99.90
74155;DHT22;62509;46.248;6.018;2024-01-15T03:51:25;4.60;99.90
74155;DHT22;62509;46.248;6.018;2024-01-15T03:56:30;4.50;99.90
74155;DHT22;62509;46.248;6.018;2024-01-15T04:01:34;4.50;99.90
74155;DHT22;62509;46.248;6.018;2024-01-15T04:06:37;4.50;99.90
74155;DHT22;62509;46.248;6.018;2024-01-15T04:11:42;4.50;99.90
74155;DHT22;62509;46.248;6.018;2024-01-15T04:16:45;4.60;99.90
74155;DHT22;62509;46.248;6.018;2024-01-15T04:21:48;4.60;99.90
74155;DHT22;62509;46.248;6.018;2024-01-15T04:26:54;4.60;99.90
74155;DHT22;62509;46.248;6.018;2024-01-15T04:31:57;4.60;99.90
74155;DHT22;62509;46.248;6.018;2024-01-15T04:37:00;4.60;99.90
74155;DHT22;62509;46.248;6.018;2024-01-15T04:42:06;4.60;99.90
74155;DHT22;62509;46.248;6.018;2024-01-15T04:47:10;4.70;99.90
74155;DHT22;62509;46.248;6.018;2024-01-15T04:52:14;4.70;99.90
74155;DHT22;62509;46.248;6.018;2024-01-15T04:57:18;4.70;99.90
74155;DHT22;62509;46.248;6.018;2024-01-15T05:02:22;4.80;99.90
74155;DHT22;62509;46.248;6.018;2024-01-15T05:07:25;4.90;99.90
74155;DHT22;62509;46.248;6.018;2024-01-15T05:12:30;5.00;99.90
74155;DHT22;62509;46.248;6.018;2024-01-15T05:17:33;4.90;99.90
74155;DHT22;62509;46.248;6.018;2024-01-15T05:22:37;4.80;99.90
74155;DHT22;62509;46.248;6.018;2024-01-15T05:27:42;4.80;99.90
74155;DHT22;62509;46.248;6.018;2024-01-15T05:32:45;4.80;99.90
74155;DHT22;62509;46.248;6.018;2024-01-15T05:37:49;4.80;99.90
74155;DHT22;62509;46.248;6.018;2024-01-15T05:42:53;4.70;99.90
74155;DHT22;62509;46.248;6.018;2024-01-15T05:47:57;4.70;99.90
74155;DHT22;62509;46.248;6.018;2024-01-15T05:53:01;4.70;99.90
74155;DHT22;62509;46.248;6.018;2024-01-15T05:58:06;4.70;99.90
74155;DHT22;62509;46.248;6.018;2024-01-15T06:03:09;4.80;99.90
74155;DHT22;62509;46.248;6.018;2024-01-15T06:08:13;4.80;99.90
74155;DHT22;62509;46.248;6.018;2024-01-15T06:13:18;4.70;99.90
74155;DHT22;62509;46.248;6.018;2024-01-15T06:18:22;4.70;99.90
74155;DHT22;62509;46.248;6.018;2024-01-15T06:23:26;4.70;99.90
74155;DHT22;62509;46.248;6.018;2024-01-15T06:28:31;4.80;99.90
74155;DHT22;62509;46.248;6.018;2024-01-15T06:33:34;4.80;99.90
74155;DHT22;62509;46.248;6.018;2024-01-15T06:38:38;4.80;99.90
74155;DHT22;62509;46.248;6.018;2024-01-15T06:43:43;4.80;99.90
74155;DHT22;62509;46.248;6.018;2024-01-15T06:48:47;4.90;99.90
74155;DHT22;62509;46.248;6.018;2024-01-15T06:53:51;4.80;99.90
74155;DHT22;62509;46.248;6.018;2024-01-15T06:58:56;4.80;99.90
74155;DHT22;62509;46.248;6.018;2024-01-15T07:03:59;4.80;99.90
74155;DHT22;62509;46.248;6.018;2024-01-15T07:09:03;4.80;99.90
74155;DHT22;62509;46.248;6.018;2024-01-15T07:14:09;4.80;99.90
74155;DHT22;62509;46.248;6.018;2024-01-15T07:19:12;4.80;99.90
74155;DHT22;62509;46.248;6.018;2024-01-15T07:24:16;4.80;99.90
74155;DHT22;62509;46.248;6.018;2024-01-15T07:29:21;4.70;99.90
74155;DHT22;62509;46.248;6.018;2024-01-15T07:34:24;4.70;99.90
74155;DHT22;62509;46.248;6.018;2024-01-15T07:39:28;4.70;99.90
74155;DHT22;62509;46.248;6.018;2024-01-15T07:44:33;4.60;99.90
74155;DHT22;62509;46.248;6.018;2024-01-15T07:49:37;4.70;99.90
74155;DHT22;62509;46.248;6.018;2024-01-15T07:54:41;4.70;99.90
74155;DHT22;62509;46.248;6.018;2024-01-15T07:59:46;4.70;99.90
74155;DHT22;62509;46.248;6.018;2024-01-15T08:04:49;4.70;99.90
74155;DHT22;62509;46.248;6.018;2024-01-15T08:09:53;4.80;99.90
74155;DHT22;62509;46.248;6.018;2024-01-15T08:14:58;4.90;99.90
74155;DHT22;62509;46.248;6.018;2024-01-15T08:20:01;5.00;99.90
74155;DHT22;62509;46.248;6.018;2024-01-15T08:25:07;5.10;99.90
74155;DHT22;62509;46.248;6.018;2024-01-15T08:30:15;5.20;99.90
74155;DHT22;62509;46.248;6.018;2024-01-15T08:35:20;5.20;99.90
74155;DHT22;62509;46.248;6.018;2024-01-15T08:40:24;5.20;99.90
74155;DHT22;62509;46.248;6.018;2024-01-15T08:45:30;5.30;99.90
74155;DHT22;62509;46.248;6.018;2024-01-15T08:50:33;5.30;99.90
74155;DHT22;62509;46.248;6.018;2024-01-15T08:55:37;5.30;99.90
74155;DHT22;62509;46.248;6.018;2024-01-15T09:00:42;5.30;99.90
74155;DHT22;62509;46.248;6.018;2024-01-15T09:05:45;5.30;99.90
74155;DHT22;62509;46.248;6.018;2024-01-15T09:10:50;5.40;99.90
74155;DHT22;62509;46.248;6.018;2024-01-15T09:15:55;5.40;99.90
74155;DHT22;62509;46.248;6.018;2024-01-15T09:20:59;5.50;99.90
74155;DHT22;62509;46.248;6.018;2024-01-15T09:26:02;5.50;99.90
74155;DHT22;62509;46.248;6.018;2024-01-15T09:31:07;5.60;99.90
74155;DHT22;62509;46.248;6.018;2024-01-15T09:36:10;5.60;99.90
74155;DHT22;62509;46.248;6.018;2024-01-15T09:41:14;5.70;99.90
74155;DHT22;62509;46.248;6.018;2024-01-15T09:46:19;5.70;99.90
74155;DHT22;62509;46.248;6.018;2024-01-15T09:51:22;5.70;99.90
74155;DHT22;62509;46.248;6.018;2024-01-15T09:56:27;5.80;99.90
74155;DHT22;62509;46.248;6.018;2024-01-15T10:01:32;5.80;99.90
74155;DHT22;62509;46.248;6.018;2024-01-15T10:06:37;5.80;99.90
74155;DHT22;62509;46.248;6.018;2024-01-15T10:11:42;5.80;99.90
74155;DHT22;62509;46.248;6.018;2024-01-15T10:16:47;5.90;99.90
74155;DHT22;62509;46.248;6.018;2024-01-15T10:21:50;5.90;99.90
74155;DHT22;62509;46.248;6.018;2024-01-15T10:26:56;5.90;99.90
74155;DHT22;62509;46.248;6.018;2024-01-15T10:32:10;6.00;99.90
74155;DHT22;62509;46.248;6.018;2024-01-15T10:37:14;6.00;99.90
74155;DHT22;62509;46.248;6.018;2024-01-15T10:42:17;6.10;99.90
74155;DHT22;62509;46.248;6.018;2024-01-15T10:47:22;6.10;99.90
74155;DHT22;62509;46.248;6.018;2024-01-15T10:52:26;6.00;99.90
74155;DHT22;62509;46.248;6.018;2024-01-15T10:57:31;6.10;99.90
74155;DHT22;62509;46.248;6.018;2024-01-15T11:02:36;6.10;99.90
74155;DHT22;62509;46.248;6.018;2024-01-15T11:07:39;6.20;99.90
74155;DHT22;62509;46.248;6.018;2024-01-15T11:12:44;6.30;99.90
74155;DHT22;62509;46.248;6.018;2024-01-15T11:18:00;6.30;99.90
74155;DHT22;62509;46.248;6.018;2024-01-15T11:23:07;6.30;99.90
74155;DHT22;62509;46.248;6.018;2024-01-15T11:28:11;6.40;99.90
74155;DHT22;62509;46.248;6.018;2024-01-15T11:33:51;6.40;99.90
74155;DHT22;62509;46.248;6.018;2024-01-15T11:38:55;6.40;99.90
74155;DHT22;62509;46.248;6.018;2024-01-15T11:44:01;6.50;99.90
74155;DHT22;62509;46.248;6.018;2024-01-15T11:49:05;6.50;99.90
74155;DHT22;62509;46.248;6.018;2024-01-15T11:54:10;6.50;99.90
74155;DHT22;62509;46.248;6.018;2024-01-15T11:59:16;6.50;99.90
74155;DHT22;62509;46.248;6.018;2024-01-15T12:04:20;6.50;99.90
74155;DHT22;62509;46.248;6.018;2024-01-15T12:09:24;6.50;99.90
74155;DHT22;62509;46.248;6.018;2024-01-15T12:14:30;6.50;99.90
74155;DHT22;62509;46.248;6.018;2024-01-15T12:19:34;6.50;99.90
74155;DHT22;62509;46.248;6.018;2024-01-15T12:24:37;6.50;99.90
74155;DHT22;62509;46.248;6.018;2024-01-15T12:29:42;6.60;99.90
74155;DHT22;62509;46.248;6.018;2024-01-15T12:34:46;6.70;99.90
74155;DHT22;62509;46.248;6.018;2024-01-15T12:39:49;6.90;99.90
74155;DHT22;62509;46.248;6.018;2024-01-15T12:44:56;7.00;99.90
74155;DHT22;62509;46.248;6.018;2024-01-15T12:49:59;7.00;99.90
74155;DHT22;62509;46.248;6.018;2024-01-15T12:55:16;7.10;99.90
74155;DHT22;62509;46.248;6.018;2024-01-15T13:00:21;7.10;99.90
74155;DHT22;62509;46.248;6.018;2024-01-15T13:05:27;7.20;99.90
74155;DHT22;62509;46.248;6.018;2024-01-15T13:10:32;7.10;99.90
74155;DHT22;62509;46.248;6.018;2024-01-15T13:15:37;7.10;99.90
74155;DHT22;62509;46.248;6.018;2024-01-15T13:20:40;7.10;99.90
74155;DHT22;62509;46.248;6.018;2024-01-15T13:25:44;7.00;99.90
74155;DHT22;62509;46.248;6.018;2024-01-15T13:30:48;6.80;99.90
74155;DHT22;62509;46.248;6.018;2024-01-15T13:35:52;6.80;99.90
74155;DHT22;62509;46.248;6.018;2024-01-15T13:40:55;6.90;99.90
74155;DHT22;62509;46.248;6.018;2024-01-15T13:46:00;6.90;99.90
74155;DHT22;62509;46.248;6.018;2024-01-15T13:51:06;6.90;99.90
74155;DHT22;62509;46.248;6.018;2024-01-15T13:56:09;7.00;99.90
74155;DHT22;62509;46.248;6.018;2024-01-15T14:01:14;7.00;99.90
74155;DHT22;62509;46.248;6.018;2024-01-15T14:06:19;7.00;99.90
74155;DHT22;62509;46.248;6.018;2024-01-15T14:11:22;7.10;99.90
74155;DHT22;62509;46.248;6.018;2024-01-15T14:16:28;7.10;99.90
74155;DHT22;62509;46.248;6.018;2024-01-15T14:21:31;7.10;99.90
74155;DHT22;62509;46.248;6.018;2024-01-15T14:26:34;7.10;99.90
74155;DHT22;62509;46.248;6.018;2024-01-15T14:31:39;7.10;99.90
74155;DHT22;62509;46.248;6.018;2024-01-15T14:36:43;7.10;99.90
74155;DHT22;62509;46.248;6.018;2024-01-15T14:41:47;7.10;99.90
74155;DHT22;62509;46.248;6.018;2024-01-15T14:46:53;7.10;99.90
74155;DHT22;62509;46.248;6.018;2024-01-15T14:51:56;7.00;99.90
74155;DHT22;62509;46.248;6.018;2024-01-15T14:56:59;7.00;99.90
74155;DHT22;62509;46.248;6.018;2024-01-15T15:02:04;6.90;99.90
74155;DHT22;62509;46.248;6.018;2024-01-15T15:07:15;6.90;99.90
74155;DHT22;62509;46.248;6.018;2024-01-15T15:12:18;6.80;99.90
74155;DHT22;62509;46.248;6.018;2024-01-15T15:17:23;6.90;99.90
74155;DHT22;62509;46.248;6.018;2024-01-15T15:22:26;6.90;99.90
74155;DHT22;62509;46.248;6.018;2024-01-15T15:27:30;6.90;99.90
74155;DHT22;62509;46.248;6.018;2024-01-15T15:32:35;6.80;99.90
74155;DHT22;62509;46.248;6.018;2024-01-15T15:37:38;6.60;99.90
74155;DHT22;62509;46.248;6.018;2024-01-15T15:42:41;6.50;99.90
74155;DHT22;62509;46.248;6.018;2024-01-15T15:47:48;6.50;99.90
74155;DHT22;62509;46.248;6.018;2024-01-15T15:52:51;6.50;99.90
74155;DHT22;62509;46.248;6.018;2024-01-15T15:57:55;6.50;99.90
74155;DHT22;62509;46.248;6.018;2024-01-15T16:03:00;6.40;99.90
74155;DHT22;62509;46.248;6.018;2024-01-15T16:08:03;6.30;99.90
74155;DHT22;62509;46.248;6.018;2024-01-15T16:13:09;6.20;99.90
74155;DHT22;62509;46.248;6.018;2024-01-15T16:18:15;6.10;99.90
74155;DHT22;62509;46.248;6.018;2024-01-15T16:23:38;5.90;99.90
74155;DHT22;62509;46.248;6.018;2024-01-15T16:29:01;5.70;99.90
74155;DHT22;62509;46.248;6.018;2024-01-15T16:34:07;5.50;99.90
74155;DHT22;62509;46.248;6.018;2024-01-15T16:39:13;5.30;99.90
74155;DHT22;62509;46.248;6.018;2024-01-15T16:44:17;5.20;99.90
74155;DHT22;62509;46.248;6.018;2024-01-15T16:49:22;5.00;99.90
74155;DHT22;62509;46.248;6.018;2024-01-15T16:54:26;4.90;99.90
74155;DHT22;62509;46.248;6.018;2024-01-15T16:59:29;4.90;99.90
74155;DHT22;62509;46.248;6.018;2024-01-15T17:04:34;4.80;99.90
74155;DHT22;62509;46.248;6.018;2024-01-15T17:09:37;4.70;99.90
74155;DHT22;62509;46.248;6.018;2024-01-15T17:14:41;4.70;99.90
74155;DHT22;62509;46.248;6.018;2024-01-15T17:19:46;4.70;99.90
74155;DHT22;62509;46.248;6.018;2024-01-15T17:24:49;4.60;99.90
74155;DHT22;62509;46.248;6.018;2024-01-15T17:29:52;4.60;99.90
74155;DHT22;62509;46.248;6.018;2024-01-15T17:34:58;4.50;99.90
74155;DHT22;62509;46.248;6.018;2024-01-15T17:40:02;4.40;99.90
74155;DHT22;62509;46.248;6.018;2024-01-15T17:45:08;4.40;99.90
74155;DHT22;62509;46.248;6.018;2024-01-15T17:50:13;4.30;99.90
74155;DHT22;62509;46.248;6.018;2024-01-15T17:55:16;4.30;99.90
74155;DHT22;62509;46.248;6.018;2024-01-15T18:00:20;4.20;99.90
74155;DHT22;62509;46.248;6.018;2024-01-15T18:05:25;3.70;99.90
74155;DHT22;62509;46.248;6.018;2024-01-15T18:10:29;3.40;99.90
74155;DHT22;62509;46.248;6.018;2024-01-15T18:15:32;3.40;99.90
74155;DHT22;62509;46.248;6.018;2024-01-15T18:20:37;3.40;99.90
74155;DHT22;62509;46.248;6.018;2024-01-15T18:25:41;3.40;99.90
74155;DHT22;62509;46.248;6.018;2024-01-15T18:30:44;3.30;99.90
74155;DHT22;62509;46.248;6.018;2024-01-15T18:35:49;3.30;99.90
74155;DHT22;62509;46.248;6.018;2024-01-15T18:40:53;3.10;99.90
74155;DHT22;62509;46.248;6.018;2024-01-15T18:45:56;3.00;99.90
74155;DHT22;62509;46.248;6.018;2024-01-15T18:51:01;2.70;99.90
74155;DHT22;62509;46.248;6.018;2024-01-15T18:56:05;2.60;99.90
74155;DHT22;62509;46.248;6.018;2024-01-15T19:01:10;2.50;99.90
74155;DHT22;62509;46.248;6.018;2024-01-15T19:06:16;2.40;99.90
74155;DHT22;62509;46.248;6.018;2024-01-15T19:11:20;2.30;99.90
74155;DHT22;62509;46.248;6.018;2024-01-15T19:16:24;2.30;99.90
74155;DHT22;62509;46.248;6.018;2024-01-15T19:21:29;2.40;99.90
74155;DHT22;62509;46.248;6.018;2024-01-15T19:26:33;2.50;99.90
74155;DHT22;62509;46.248;6.018;2024-01-15T19:31:36;2.50;99.90
74155;DHT22;62509;46.248;6.018;2024-01-15T19:36:42;2.40;99.90
74155;DHT22;62509;46.248;6.018;2024-01-15T19:41:46;2.40;99.90
74155;DHT22;62509;46.248;6.018;2024-01-15T19:46:50;2.20;99.90
74155;DHT22;62509;46.248;6.018;2024-01-15T19:51:55;2.00;99.90
74155;DHT22;62509;46.248;6.018;2024-01-15T19:56:58;2.10;99.90
74155;DHT22;62509;46.248;6.018;2024-01-15T20:02:01;2.10;99.90
74155;DHT22;62509;46.248;6.018;2024-01-15T20:07:06;2.10;99.90
74155;DHT22;62509;46.248;6.018;2024-01-15T20:12:10;2.10;99.90
74155;DHT22;62509;46.248;6.018;2024-01-15T20:17:13;2.00;99.90
74155;DHT22;62509;46.248;6.018;2024-01-15T20:22:18;2.00;99.90
74155;DHT22;62509;46.248;6.018;2024-01-15T20:27:21;2.00;99.90
74155;DHT22;62509;46.248;6.018;2024-01-15T20:32:24;2.00;99.90
74155;DHT22;62509;46.248;6.018;2024-01-15T20:37:30;2.10;99.90
74155;DHT22;62509;46.248;6.018;2024-01-15T20:42:33;2.20;99.90
74155;DHT22;62509;46.248;6.018;2024-01-15T20:47:37;2.20;99.90
74155;DHT22;62509;46.248;6.018;2024-01-15T20:52:42;2.20;99.90
74155;DHT22;62509;46.248;6.018;2024-01-15T20:57:46;2.10;99.90
74155;DHT22;62509;46.248;6.018;2024-01-15T21:02:49;2.00;99.90
74155;DHT22;62509;46.248;6.018;2024-01-15T21:07:54;2.10;99.90
74155;DHT22;62509;46.248;6.018;2024-01-15T21:12:58;2.10;99.90
74155;DHT22;62509;46.248;6.018;2024-01-15T21:18:02;1.90;99.90
74155;DHT22;62509;46.248;6.018;2024-01-15T21:23:07;1.80;99.90
74155;DHT22;62509;46.248;6.018;2024-01-15T21:28:11;1.60;99.90
74155;DHT22;62509;46.248;6.018;2024-01-15T21:33:14;1.60;99.90
74155;DHT22;62509;46.248;6.018;2024-01-15T21:38:19;1.60;99.90
74155;DHT22;62509;46.248;6.018;2024-01-15T21:43:22;1.60;99.90
74155;DHT22;62509;46.248;6.018;2024-01-15T21:48:26;1.60;99.90
74155;DHT22;62509;46.248;6.018;2024-01-15T21:53:31;1.60;99.90
74155;DHT22;62509;46.248;6.018;2024-01-15T21:58:34;1.50;99.90
74155;DHT22;62509;46.248;6.018;2024-01-15T22:03:38;1.30;99.90
74155;DHT22;62509;46.248;6.018;2024-01-15T22:08:43;1.20;99.90
74155;DHT22;62509;46.248;6.018;2024-01-15T22:13:46;1.10;99.90
74155;DHT22;62509;46.248;6.018;2024-01-15T22:18:50;1.30;99.90
74155;DHT22;62509;46.248;6.018;2024-01-15T22:23:55;1.50;99.90
74155;DHT22;62509;46.248;6.018;2024-01-15T22:28:58;1.50;99.90
74155;DHT22;62509;46.248;6.018;2024-01-15T22:34:04;1.60;99.90
74155;DHT22;62509;46.248;6.018;2024-01-15T22:39:09;1.70;99.90
74155;DHT22;62509;46.248;6.018;2024-01-15T22:44:12;1.80;99.90
74155;DHT22;62509;46.248;6.018;2024-01-15T22:49:16;1.80;99.90
74155;DHT22;62509;46.248;6.018;2024-01-15T22:54:20;2.00;99.90
74155;DHT22;62509;46.248;6.018;2024-01-15T22:59:24;2.10;99.90
74155;DHT22;62509;46.248;6.018;2024-01-15T23:04:27;2.10;99.90
74155;DHT22;62509;46.248;6.018;2024-01-15T23:09:32;2.20;99.90
74155;DHT22;62509;46.248;6.018;2024-01-15T23:14:35;2.20;99.90
74155;DHT22;62509;46.248;6.018;2024-01-15T23:19:39;2.20;99.90
74155;DHT22;62509;46.248;6.018;2024-01-15T23:24:44;2.10;99.90
74155;DHT22;62509;46.248;6.018;2024-01-15T23:29:47;2.20;99.90
74155;DHT22;62509;46.248;6.018;2024-01-15T23:34:50;2.20;99.90
74155;DHT22;62509;46.248;6.018;2024-01-15T23:39:56;2.20;99.90
74155;DHT22;62509;46.248;6.018;2024-01-15T23:44:59;2.20;99.90
74155;DHT22;62509;46.248;6.018;2024-01-15T23:50:03;2.20;99.90
74155;DHT22;62509;46.248;6.018;2024-01-15T23:55:10;2.30;99.90
